![]() |
EMODnet Physics ERDDAP
Easier access to scientific data |
log in|
Brought to you by EMODnet Physics |
| Dataset Title: | NDBC - Collection of dew point temperature (DEWT) TimeSeries - IN SITU MultiPointTimeSeriesObservation
|
| Institution: | NDBC (Dataset ID: TS_DEWT_NDBC) |
| Information: | Summary
| License
| FGDC
| ISO 19115
| Metadata
| Background
| Subset
| Data Access Form
| Make a graph
|
| Name | Last modified | Size | Description | |
|---|---|---|---|---|
| Parent Directory | - | - | ||
| 51004_TS_DEWT_011985.nc | 05-Dec-2024 20:28 | 448474 | ||
| 51004_TS_DEWT_011986.nc | 05-Dec-2024 20:30 | 449811 | ||
| 51004_TS_DEWT_011988.nc | 05-Dec-2024 20:32 | 429137 | ||
| 51004_TS_DEWT_011989.nc | 05-Dec-2024 20:34 | 447232 | ||
| 51004_TS_DEWT_011990.nc | 05-Dec-2024 20:35 | 447665 | ||
| 51004_TS_DEWT_011992.nc | 05-Dec-2024 20:41 | 448353 | ||
| 51004_TS_DEWT_011993.nc | 05-Dec-2024 20:43 | 450326 | ||
| 51004_TS_DEWT_011994.nc | 05-Dec-2024 20:45 | 446080 | ||
| 51004_TS_DEWT_011995.nc | 05-Dec-2024 20:47 | 446811 | ||
| 51004_TS_DEWT_011996.nc | 05-Dec-2024 20:48 | 448090 | ||
| 51004_TS_DEWT_011997.nc | 05-Dec-2024 20:50 | 1009731 | ||
| 51004_TS_DEWT_011998.nc | 05-Dec-2024 20:52 | 451812 | ||
| 51004_TS_DEWT_011999.nc | 05-Dec-2024 20:54 | 429874 | ||
| 51004_TS_DEWT_012000.nc | 05-Dec-2024 20:55 | 449576 | ||
| 51004_TS_DEWT_012001.nc | 05-Dec-2024 20:57 | 448978 | ||
| 51004_TS_DEWT_012002.nc | 05-Dec-2024 20:59 | 429095 | ||
| 51004_TS_DEWT_012003.nc | 05-Dec-2024 21:01 | 451131 | ||
| 51004_TS_DEWT_012004.nc | 05-Dec-2024 21:03 | 451002 | ||
| 51004_TS_DEWT_012005.nc | 05-Dec-2024 21:05 | 450749 | ||
| 51004_TS_DEWT_012006.nc | 05-Dec-2024 21:07 | 451157 | ||
| 51004_TS_DEWT_012007.nc | 05-Dec-2024 21:13 | 434648 | ||
| 51004_TS_DEWT_012008.nc | 05-Dec-2024 21:15 | 449557 | ||
| 51004_TS_DEWT_012012.nc | 05-Dec-2024 21:18 | 452350 | ||
| 51004_TS_DEWT_012013.nc | 05-Dec-2024 21:20 | 450829 | ||
| 51004_TS_DEWT_012014.nc | 05-Dec-2024 21:26 | 429511 | ||
| 51004_TS_DEWT_012015.nc | 05-Dec-2024 21:39 | 449921 | ||
| 51004_TS_DEWT_012016.nc | 05-Dec-2024 21:42 | 449632 | ||
| 51004_TS_DEWT_012017.nc | 05-Dec-2024 21:44 | 429292 | ||
| 51004_TS_DEWT_012018.nc | 05-Dec-2024 21:47 | 449533 | ||
| 51004_TS_DEWT_012019.nc | 05-Dec-2024 21:51 | 436128 | ||
| 51004_TS_DEWT_012020.nc | 05-Dec-2024 21:56 | 446119 | ||
| 51004_TS_DEWT_012021.nc | 05-Dec-2024 22:01 | 449073 | ||
| 51004_TS_DEWT_012022.nc | 05-Dec-2024 22:05 | 450076 | ||
| 51004_TS_DEWT_012023.nc | 05-Dec-2024 22:09 | 449362 | ||
| 51004_TS_DEWT_012025.nc | 07-Feb-2025 09:10 | 449891 | ||
| 51004_TS_DEWT_012026.nc | 02-Feb-2026 15:50 | 422231 | ||
| 51004_TS_DEWT_021985.nc | 05-Dec-2024 20:28 | 452966 | ||
| 51004_TS_DEWT_021986.nc | 05-Dec-2024 20:30 | 429795 | ||
| 51004_TS_DEWT_021988.nc | 05-Dec-2024 20:33 | 452968 | ||
| 51004_TS_DEWT_021989.nc | 05-Dec-2024 20:34 | 450315 | ||
| 51004_TS_DEWT_021990.nc | 05-Dec-2024 20:35 | 429897 | ||
| 51004_TS_DEWT_021991.nc | 05-Dec-2024 20:38 | 450438 | ||
| 51004_TS_DEWT_021992.nc | 05-Dec-2024 20:42 | 450374 | ||
| 51004_TS_DEWT_021993.nc | 05-Dec-2024 20:43 | 450115 | ||
| 51004_TS_DEWT_021994.nc | 05-Dec-2024 20:45 | 451056 | ||
| 51004_TS_DEWT_021995.nc | 05-Dec-2024 20:47 | 450255 | ||
| 51004_TS_DEWT_021996.nc | 05-Dec-2024 20:49 | 449648 | ||
| 51004_TS_DEWT_021997.nc | 05-Dec-2024 20:50 | 447909 | ||
| 51004_TS_DEWT_021999.nc | 05-Dec-2024 20:54 | 427819 | ||
| 51004_TS_DEWT_022000.nc | 05-Dec-2024 20:55 | 445568 | ||
| 51004_TS_DEWT_022001.nc | 05-Dec-2024 20:57 | 450929 | ||
| 51004_TS_DEWT_022002.nc | 05-Dec-2024 20:59 | 429526 | ||
| 51004_TS_DEWT_022003.nc | 05-Dec-2024 21:01 | 450257 | ||
| 51004_TS_DEWT_022004.nc | 05-Dec-2024 21:03 | 450434 | ||
| 51004_TS_DEWT_022005.nc | 05-Dec-2024 21:05 | 427397 | ||
| 51004_TS_DEWT_022006.nc | 05-Dec-2024 21:09 | 429253 | ||
| 51004_TS_DEWT_022007.nc | 05-Dec-2024 21:13 | 449388 | ||
| 51004_TS_DEWT_022008.nc | 05-Dec-2024 21:15 | 448443 | ||
| 51004_TS_DEWT_022012.nc | 05-Dec-2024 21:18 | 449259 | ||
| 51004_TS_DEWT_022013.nc | 05-Dec-2024 21:20 | 449596 | ||
| 51004_TS_DEWT_022014.nc | 05-Dec-2024 21:28 | 446573 | ||
| 51004_TS_DEWT_022015.nc | 05-Dec-2024 21:40 | 449183 | ||
| 51004_TS_DEWT_022016.nc | 05-Dec-2024 21:42 | 447110 | ||
| 51004_TS_DEWT_022017.nc | 05-Dec-2024 21:44 | 427885 | ||
| 51004_TS_DEWT_022018.nc | 05-Dec-2024 21:47 | 444724 | ||
| 51004_TS_DEWT_022019.nc | 05-Dec-2024 21:52 | 451394 | ||
| 51004_TS_DEWT_022020.nc | 05-Dec-2024 21:56 | 429897 | ||
| 51004_TS_DEWT_022021.nc | 05-Dec-2024 22:01 | 449894 | ||
| 51004_TS_DEWT_022022.nc | 05-Dec-2024 22:05 | 451239 | ||
| 51004_TS_DEWT_022023.nc | 05-Dec-2024 22:10 | 440307 | ||
| 51004_TS_DEWT_022025.nc | 01-Mar-2025 04:53 | 429868 | ||
| 51004_TS_DEWT_022026.nc | 01-Mar-2026 04:22 | 451305 | ||
| 51004_TS_DEWT_031985.nc | 05-Dec-2024 20:28 | 450429 | ||
| 51004_TS_DEWT_031986.nc | 05-Dec-2024 20:30 | 449142 | ||
| 51004_TS_DEWT_031989.nc | 05-Dec-2024 20:34 | 448274 | ||
| 51004_TS_DEWT_031990.nc | 05-Dec-2024 20:36 | 448803 | ||
| 51004_TS_DEWT_031991.nc | 05-Dec-2024 20:38 | 450136 | ||
| 51004_TS_DEWT_031992.nc | 05-Dec-2024 20:42 | 451435 | ||
| 51004_TS_DEWT_031993.nc | 05-Dec-2024 20:43 | 429983 | ||
| 51004_TS_DEWT_031994.nc | 05-Dec-2024 20:45 | 426200 | ||
| 51004_TS_DEWT_031995.nc | 05-Dec-2024 20:47 | 423917 | ||
| 51004_TS_DEWT_031996.nc | 05-Dec-2024 20:49 | 450362 | ||
| 51004_TS_DEWT_031997.nc | 05-Dec-2024 20:50 | 429647 | ||
| 51004_TS_DEWT_031999.nc | 05-Dec-2024 20:54 | 438074 | ||
| 51004_TS_DEWT_032000.nc | 05-Dec-2024 20:56 | 426372 | ||
| 51004_TS_DEWT_032001.nc | 05-Dec-2024 20:57 | 452748 | ||
| 51004_TS_DEWT_032002.nc | 05-Dec-2024 21:00 | 429918 | ||
| 51004_TS_DEWT_032003.nc | 05-Dec-2024 21:01 | 429919 | ||
| 51004_TS_DEWT_032004.nc | 05-Dec-2024 21:03 | 448397 | ||
| 51004_TS_DEWT_032005.nc | 05-Dec-2024 21:05 | 449093 | ||
| 51004_TS_DEWT_032006.nc | 05-Dec-2024 21:10 | 450424 | ||
| 51004_TS_DEWT_032007.nc | 05-Dec-2024 21:13 | 448951 | ||
| 51004_TS_DEWT_032008.nc | 05-Dec-2024 21:15 | 448282 | ||
| 51004_TS_DEWT_032011.nc | 05-Dec-2024 21:17 | 450883 | ||
| 51004_TS_DEWT_032012.nc | 05-Dec-2024 21:19 | 449960 | ||
| 51004_TS_DEWT_032013.nc | 05-Dec-2024 21:20 | 433469 | ||
| 51004_TS_DEWT_032014.nc | 05-Dec-2024 21:30 | 426507 | ||
| 51004_TS_DEWT_032015.nc | 05-Dec-2024 21:40 | 448496 | ||
| 51004_TS_DEWT_032016.nc | 05-Dec-2024 21:42 | 449763 | ||
| 51004_TS_DEWT_032017.nc | 05-Dec-2024 21:44 | 450793 | ||
| 51004_TS_DEWT_032018.nc | 05-Dec-2024 21:47 | 450572 | ||
| 51004_TS_DEWT_032019.nc | 05-Dec-2024 21:52 | 419140 | ||
| 51004_TS_DEWT_032021.nc | 05-Dec-2024 22:01 | 429576 | ||
| 51004_TS_DEWT_032022.nc | 05-Dec-2024 22:06 | 435892 | ||
| 51004_TS_DEWT_032023.nc | 05-Dec-2024 22:10 | 449607 | ||
| 51004_TS_DEWT_032025.nc | 02-Apr-2025 03:59 | 450455 | ||
| 51004_TS_DEWT_032026.nc | 24-Mar-2026 04:44 | 449231 | ||
| 51004_TS_DEWT_041985.nc | 05-Dec-2024 20:28 | 449119 | ||
| 51004_TS_DEWT_041986.nc | 05-Dec-2024 20:30 | 447499 | ||
| 51004_TS_DEWT_041987.nc | 05-Dec-2024 20:31 | 447843 | ||
| 51004_TS_DEWT_041989.nc | 05-Dec-2024 20:34 | 448992 | ||
| 51004_TS_DEWT_041990.nc | 05-Dec-2024 20:36 | 451016 | ||
| 51004_TS_DEWT_041991.nc | 05-Dec-2024 20:39 | 425035 | ||
| 51004_TS_DEWT_041992.nc | 05-Dec-2024 20:42 | 449938 | ||
| 51004_TS_DEWT_041993.nc | 05-Dec-2024 20:44 | 451803 | ||
| 51004_TS_DEWT_041994.nc | 05-Dec-2024 20:45 | 450590 | ||
| 51004_TS_DEWT_041995.nc | 05-Dec-2024 20:47 | 452155 | ||
| 51004_TS_DEWT_041996.nc | 05-Dec-2024 20:49 | 450399 | ||
| 51004_TS_DEWT_041997.nc | 05-Dec-2024 20:51 | 451161 | ||
| 51004_TS_DEWT_042000.nc | 05-Dec-2024 20:56 | 429619 | ||
| 51004_TS_DEWT_042001.nc | 05-Dec-2024 20:58 | 449148 | ||
| 51004_TS_DEWT_042002.nc | 05-Dec-2024 21:00 | 450281 | ||
| 51004_TS_DEWT_042003.nc | 05-Dec-2024 21:02 | 450660 | ||
| 51004_TS_DEWT_042004.nc | 05-Dec-2024 21:03 | 450146 | ||
| 51004_TS_DEWT_042005.nc | 05-Dec-2024 21:05 | 449210 | ||
| 51004_TS_DEWT_042006.nc | 05-Dec-2024 21:11 | 446942 | ||
| 51004_TS_DEWT_042007.nc | 05-Dec-2024 21:14 | 451355 | ||
| 51004_TS_DEWT_042008.nc | 05-Dec-2024 21:16 | 444861 | ||
| 51004_TS_DEWT_042011.nc | 05-Dec-2024 21:17 | 492452 | ||
| 51004_TS_DEWT_042012.nc | 05-Dec-2024 21:19 | 429533 | ||
| 51004_TS_DEWT_042013.nc | 05-Dec-2024 21:20 | 427866 | ||
| 51004_TS_DEWT_042014.nc | 05-Dec-2024 21:31 | 444817 | ||
| 51004_TS_DEWT_042015.nc | 05-Dec-2024 21:40 | 437652 | ||
| 51004_TS_DEWT_042016.nc | 05-Dec-2024 21:42 | 451005 | ||
| 51004_TS_DEWT_042017.nc | 05-Dec-2024 21:44 | 449742 | ||
| 51004_TS_DEWT_042018.nc | 05-Dec-2024 21:48 | 449078 | ||
| 51004_TS_DEWT_042019.nc | 05-Dec-2024 21:53 | 449919 | ||
| 51004_TS_DEWT_042020.nc | 05-Dec-2024 21:57 | 429595 | ||
| 51004_TS_DEWT_042021.nc | 05-Dec-2024 22:02 | 443191 | ||
| 51004_TS_DEWT_042022.nc | 05-Dec-2024 22:06 | 450969 | ||
| 51004_TS_DEWT_042023.nc | 05-Dec-2024 22:10 | 449937 | ||
| 51004_TS_DEWT_042025.nc | 01-May-2025 03:34 | 448545 | ||
| 51004_TS_DEWT_051985.nc | 05-Dec-2024 20:29 | 446072 | ||
| 51004_TS_DEWT_051986.nc | 05-Dec-2024 20:30 | 445070 | ||
| 51004_TS_DEWT_051987.nc | 05-Dec-2024 20:31 | 449610 | ||
| 51004_TS_DEWT_051989.nc | 05-Dec-2024 20:34 | 449830 | ||
| 51004_TS_DEWT_051990.nc | 05-Dec-2024 20:36 | 3981833 | ||
| 51004_TS_DEWT_051991.nc | 05-Dec-2024 20:39 | 448829 | ||
| 51004_TS_DEWT_051992.nc | 05-Dec-2024 20:42 | 421086 | ||
| 51004_TS_DEWT_051993.nc | 05-Dec-2024 20:44 | 451129 | ||
| 51004_TS_DEWT_051994.nc | 05-Dec-2024 20:45 | 429741 | ||
| 51004_TS_DEWT_051995.nc | 05-Dec-2024 20:47 | 445499 | ||
| 51004_TS_DEWT_051996.nc | 05-Dec-2024 20:49 | 451375 | ||
| 51004_TS_DEWT_051997.nc | 05-Dec-2024 20:51 | 452238 | ||
| 51004_TS_DEWT_051998.nc | 05-Dec-2024 20:52 | 451317 | ||
| 51004_TS_DEWT_052000.nc | 05-Dec-2024 20:56 | 429917 | ||
| 51004_TS_DEWT_052001.nc | 05-Dec-2024 20:58 | 449675 | ||
| 51004_TS_DEWT_052002.nc | 05-Dec-2024 21:00 | 449675 | ||
| 51004_TS_DEWT_052003.nc | 05-Dec-2024 21:02 | 450723 | ||
| 51004_TS_DEWT_052004.nc | 05-Dec-2024 21:03 | 449966 | ||
| 51004_TS_DEWT_052005.nc | 05-Dec-2024 21:05 | 450815 | ||
| 51004_TS_DEWT_052006.nc | 05-Dec-2024 21:12 | 443753 | ||
| 51004_TS_DEWT_052007.nc | 05-Dec-2024 21:14 | 451102 | ||
| 51004_TS_DEWT_052011.nc | 05-Dec-2024 21:17 | 450079 | ||
| 51004_TS_DEWT_052012.nc | 05-Dec-2024 21:19 | 4110544 | ||
| 51004_TS_DEWT_052013.nc | 05-Dec-2024 21:20 | 446947 | ||
| 51004_TS_DEWT_052014.nc | 05-Dec-2024 21:33 | 448251 | ||
| 51004_TS_DEWT_052015.nc | 05-Dec-2024 21:40 | 436084 | ||
| 51004_TS_DEWT_052016.nc | 05-Dec-2024 21:42 | 443110 | ||
| 51004_TS_DEWT_052017.nc | 05-Dec-2024 21:45 | 450783 | ||
| 51004_TS_DEWT_052018.nc | 05-Dec-2024 21:48 | 450093 | ||
| 51004_TS_DEWT_052019.nc | 05-Dec-2024 21:53 | 450635 | ||
| 51004_TS_DEWT_052020.nc | 05-Dec-2024 21:57 | 451022 | ||
| 51004_TS_DEWT_052021.nc | 05-Dec-2024 22:02 | 455323 | ||
| 51004_TS_DEWT_052022.nc | 05-Dec-2024 22:07 | 440450 | ||
| 51004_TS_DEWT_052023.nc | 05-Dec-2024 22:11 | 454395 | ||
| 51004_TS_DEWT_052025.nc | 01-Jun-2025 06:35 | 448901 | ||
| 51004_TS_DEWT_061985.nc | 05-Dec-2024 20:29 | 468692 | ||
| 51004_TS_DEWT_061986.nc | 05-Dec-2024 20:31 | 987456 | ||
| 51004_TS_DEWT_061987.nc | 05-Dec-2024 20:31 | 689910 | ||
| 51004_TS_DEWT_061989.nc | 05-Dec-2024 20:34 | 984916 | ||
| 51004_TS_DEWT_061990.nc | 05-Dec-2024 20:36 | 985977 | ||
| 51004_TS_DEWT_061992.nc | 05-Dec-2024 20:42 | 984684 | ||
| 51004_TS_DEWT_061993.nc | 05-Dec-2024 20:44 | 436809 | ||
| 51004_TS_DEWT_061994.nc | 05-Dec-2024 20:46 | 586909 | ||
| 51004_TS_DEWT_061995.nc | 05-Dec-2024 20:47 | 445855 | ||
| 51004_TS_DEWT_061996.nc | 05-Dec-2024 20:49 | 438441 | ||
| 51004_TS_DEWT_061997.nc | 05-Dec-2024 20:51 | 446166 | ||
| 51004_TS_DEWT_061998.nc | 05-Dec-2024 20:52 | 430195 | ||
| 51004_TS_DEWT_061999.nc | 05-Dec-2024 20:54 | 449075 | ||
| 51004_TS_DEWT_062000.nc | 05-Dec-2024 20:56 | 449429 | ||
| 51004_TS_DEWT_062001.nc | 05-Dec-2024 20:58 | 446617 | ||
| 51004_TS_DEWT_062002.nc | 05-Dec-2024 21:00 | 447368 | ||
| 51004_TS_DEWT_062003.nc | 05-Dec-2024 21:02 | 451644 | ||
| 51004_TS_DEWT_062004.nc | 05-Dec-2024 21:04 | 445075 | ||
| 51004_TS_DEWT_062005.nc | 05-Dec-2024 21:05 | 450558 | ||
| 51004_TS_DEWT_062006.nc | 05-Dec-2024 21:12 | 449378 | ||
| 51004_TS_DEWT_062007.nc | 05-Dec-2024 21:14 | 633083 | ||
| 51004_TS_DEWT_062011.nc | 05-Dec-2024 21:17 | 679629 | ||
| 51004_TS_DEWT_062012.nc | 05-Dec-2024 21:19 | 679029 | ||
| 51004_TS_DEWT_062013.nc | 05-Dec-2024 21:21 | 681704 | ||
| 51004_TS_DEWT_062015.nc | 05-Dec-2024 21:40 | 684303 | ||
| 51004_TS_DEWT_062016.nc | 05-Dec-2024 21:43 | 676271 | ||
| 51004_TS_DEWT_062017.nc | 05-Dec-2024 21:45 | 437921 | ||
| 51004_TS_DEWT_062018.nc | 05-Dec-2024 21:48 | 437453 | ||
| 51004_TS_DEWT_062019.nc | 05-Dec-2024 21:53 | 448486 | ||
| 51004_TS_DEWT_062020.nc | 05-Dec-2024 21:58 | 449693 | ||
| 51004_TS_DEWT_062021.nc | 05-Dec-2024 22:02 | 444673 | ||
| 51004_TS_DEWT_062022.nc | 05-Dec-2024 22:07 | 440290 | ||
| 51004_TS_DEWT_062023.nc | 05-Dec-2024 22:11 | 451262 | ||
| 51004_TS_DEWT_062025.nc | 01-Jul-2025 06:10 | 452325 | ||
| 51004_TS_DEWT_071985.nc | 05-Dec-2024 20:29 | 449508 | ||
| 51004_TS_DEWT_071987.nc | 05-Dec-2024 20:32 | 455607 | ||
| 51004_TS_DEWT_071988.nc | 05-Dec-2024 20:33 | 451425 | ||
| 51004_TS_DEWT_071989.nc | 05-Dec-2024 20:34 | 452868 | ||
| 51004_TS_DEWT_071990.nc | 05-Dec-2024 20:36 | 452598 | ||
| 51004_TS_DEWT_071991.nc | 05-Dec-2024 20:39 | 690766 | ||
| 51004_TS_DEWT_071992.nc | 05-Dec-2024 20:42 | 986006 | ||
| 51004_TS_DEWT_071993.nc | 05-Dec-2024 20:44 | 672724 | ||
| 51004_TS_DEWT_071994.nc | 05-Dec-2024 20:46 | 987747 | ||
| 51004_TS_DEWT_071995.nc | 05-Dec-2024 20:47 | 643596 | ||
| 51004_TS_DEWT_071996.nc | 05-Dec-2024 20:49 | 586917 | ||
| 51004_TS_DEWT_071997.nc | 05-Dec-2024 20:51 | 438951 | ||
| 51004_TS_DEWT_071998.nc | 05-Dec-2024 20:53 | 445778 | ||
| 51004_TS_DEWT_071999.nc | 05-Dec-2024 20:54 | 434176 | ||
| 51004_TS_DEWT_072000.nc | 05-Dec-2024 20:56 | 444564 | ||
| 51004_TS_DEWT_072001.nc | 05-Dec-2024 20:58 | 446575 | ||
| 51004_TS_DEWT_072002.nc | 05-Dec-2024 21:00 | 447822 | ||
| 51004_TS_DEWT_072003.nc | 05-Dec-2024 21:02 | 443821 | ||
| 51004_TS_DEWT_072004.nc | 05-Dec-2024 21:04 | 449285 | ||
| 51004_TS_DEWT_072005.nc | 05-Dec-2024 21:06 | 449298 | ||
| 51004_TS_DEWT_072006.nc | 05-Dec-2024 21:12 | 448583 | ||
| 51004_TS_DEWT_072007.nc | 05-Dec-2024 21:14 | 435654 | ||
| 51004_TS_DEWT_072011.nc | 05-Dec-2024 21:17 | 451174 | ||
| 51004_TS_DEWT_072013.nc | 05-Dec-2024 21:21 | 452124 | ||
| 51004_TS_DEWT_072014.nc | 05-Dec-2024 21:35 | 677455 | ||
| 51004_TS_DEWT_072015.nc | 05-Dec-2024 21:40 | 690029 | ||
| 51004_TS_DEWT_072016.nc | 05-Dec-2024 21:43 | 680199 | ||
| 51004_TS_DEWT_072017.nc | 05-Dec-2024 21:45 | 690884 | ||
| 51004_TS_DEWT_072018.nc | 05-Dec-2024 21:49 | 680531 | ||
| 51004_TS_DEWT_072019.nc | 05-Dec-2024 21:54 | 437721 | ||
| 51004_TS_DEWT_072020.nc | 05-Dec-2024 21:58 | 439660 | ||
| 51004_TS_DEWT_072021.nc | 05-Dec-2024 22:03 | 450417 | ||
| 51004_TS_DEWT_072022.nc | 05-Dec-2024 22:07 | 418952 | ||
| 51004_TS_DEWT_072023.nc | 05-Dec-2024 22:11 | 450711 | ||
| 51004_TS_DEWT_072025.nc | 01-Aug-2025 06:15 | 451439 | ||
| 51004_TS_DEWT_081985.nc | 05-Dec-2024 20:29 | 451238 | ||
| 51004_TS_DEWT_081986.nc | 05-Dec-2024 20:31 | 450533 | ||
| 51004_TS_DEWT_081987.nc | 05-Dec-2024 20:32 | 450869 | ||
| 51004_TS_DEWT_081988.nc | 05-Dec-2024 20:33 | 451056 | ||
| 51004_TS_DEWT_081989.nc | 05-Dec-2024 20:35 | 451062 | ||
| 51004_TS_DEWT_081990.nc | 05-Dec-2024 20:36 | 450351 | ||
| 51004_TS_DEWT_081991.nc | 05-Dec-2024 20:41 | 452631 | ||
| 51004_TS_DEWT_081992.nc | 05-Dec-2024 20:42 | 452709 | ||
| 51004_TS_DEWT_081993.nc | 05-Dec-2024 20:44 | 656828 | ||
| 51004_TS_DEWT_081994.nc | 05-Dec-2024 20:46 | 681267 | ||
| 51004_TS_DEWT_081995.nc | 05-Dec-2024 20:48 | 681408 | ||
| 51004_TS_DEWT_081996.nc | 05-Dec-2024 20:49 | 688464 | ||
| 51004_TS_DEWT_081997.nc | 05-Dec-2024 20:51 | 984545 | ||
| 51004_TS_DEWT_081998.nc | 05-Dec-2024 20:53 | 602454 | ||
| 51004_TS_DEWT_081999.nc | 05-Dec-2024 20:54 | 437748 | ||
| 51004_TS_DEWT_082000.nc | 05-Dec-2024 20:56 | 606665 | ||
| 51004_TS_DEWT_082001.nc | 05-Dec-2024 20:58 | 446401 | ||
| 51004_TS_DEWT_082002.nc | 05-Dec-2024 21:00 | 437371 | ||
| 51004_TS_DEWT_082003.nc | 05-Dec-2024 21:02 | 443099 | ||
| 51004_TS_DEWT_082004.nc | 05-Dec-2024 21:04 | 450291 | ||
| 51004_TS_DEWT_082005.nc | 05-Dec-2024 21:06 | 449911 | ||
| 51004_TS_DEWT_082006.nc | 05-Dec-2024 21:12 | 449140 | ||
| 51004_TS_DEWT_082007.nc | 05-Dec-2024 21:14 | 450494 | ||
| 51004_TS_DEWT_082008.nc | 05-Dec-2024 21:16 | 448285 | ||
| 51004_TS_DEWT_082011.nc | 05-Dec-2024 21:17 | 449910 | ||
| 51004_TS_DEWT_082013.nc | 05-Dec-2024 21:21 | 447563 | ||
| 51004_TS_DEWT_082014.nc | 05-Dec-2024 21:36 | 450711 | ||
| 51004_TS_DEWT_082015.nc | 05-Dec-2024 21:41 | 449293 | ||
| 51004_TS_DEWT_082016.nc | 05-Dec-2024 21:43 | 660336 | ||
| 51004_TS_DEWT_082017.nc | 05-Dec-2024 21:45 | 677034 | ||
| 51004_TS_DEWT_082018.nc | 05-Dec-2024 21:49 | 686624 | ||
| 51004_TS_DEWT_082019.nc | 05-Dec-2024 21:54 | 687877 | ||
| 51004_TS_DEWT_082020.nc | 05-Dec-2024 21:59 | 640978 | ||
| 51004_TS_DEWT_082021.nc | 05-Dec-2024 22:03 | 476701 | ||
| 51004_TS_DEWT_082022.nc | 05-Dec-2024 22:08 | 437404 | ||
| 51004_TS_DEWT_082023.nc | 05-Dec-2024 22:12 | 605155 | ||
| 51004_TS_DEWT_082025.nc | 01-Sep-2025 05:54 | 447077 | ||
| 51004_TS_DEWT_091985.nc | 05-Dec-2024 20:29 | 445836 | ||
| 51004_TS_DEWT_091986.nc | 05-Dec-2024 20:31 | 439931 | ||
| 51004_TS_DEWT_091987.nc | 05-Dec-2024 20:32 | 451138 | ||
| 51004_TS_DEWT_091988.nc | 05-Dec-2024 20:33 | 441837 | ||
| 51004_TS_DEWT_091989.nc | 05-Dec-2024 20:35 | 451757 | ||
| 51004_TS_DEWT_091990.nc | 05-Dec-2024 20:36 | 449400 | ||
| 51004_TS_DEWT_091991.nc | 05-Dec-2024 20:41 | 449908 | ||
| 51004_TS_DEWT_091992.nc | 05-Dec-2024 20:43 | 448462 | ||
| 51004_TS_DEWT_091993.nc | 05-Dec-2024 20:44 | 450339 | ||
| 51004_TS_DEWT_091994.nc | 05-Dec-2024 20:46 | 450812 | ||
| 51004_TS_DEWT_091995.nc | 05-Dec-2024 20:48 | 451600 | ||
| 51004_TS_DEWT_091996.nc | 05-Dec-2024 20:50 | 688176 | ||
| 51004_TS_DEWT_091997.nc | 05-Dec-2024 20:51 | 983303 | ||
| 51004_TS_DEWT_091998.nc | 05-Dec-2024 20:53 | 982653 | ||
| 51004_TS_DEWT_091999.nc | 05-Dec-2024 20:55 | 980723 | ||
| 51004_TS_DEWT_092000.nc | 05-Dec-2024 20:56 | 454884 | ||
| 51004_TS_DEWT_092001.nc | 05-Dec-2024 20:58 | 439719 | ||
| 51004_TS_DEWT_092002.nc | 05-Dec-2024 21:01 | 603123 | ||
| 51004_TS_DEWT_092003.nc | 05-Dec-2024 21:02 | 443811 | ||
| 51004_TS_DEWT_092004.nc | 05-Dec-2024 21:04 | 446749 | ||
| 51004_TS_DEWT_092005.nc | 05-Dec-2024 21:06 | 439171 | ||
| 51004_TS_DEWT_092006.nc | 05-Dec-2024 21:12 | 448533 | ||
| 51004_TS_DEWT_092007.nc | 05-Dec-2024 21:14 | 450841 | ||
| 51004_TS_DEWT_092008.nc | 05-Dec-2024 21:16 | 450793 | ||
| 51004_TS_DEWT_092009.nc | 05-Dec-2024 21:16 | 449147 | ||
| 51004_TS_DEWT_092011.nc | 05-Dec-2024 21:18 | 442572 | ||
| 51004_TS_DEWT_092012.nc | 05-Dec-2024 21:19 | 449603 | ||
| 51004_TS_DEWT_092013.nc | 05-Dec-2024 21:21 | 450989 | ||
| 51004_TS_DEWT_092014.nc | 05-Dec-2024 21:38 | 448734 | ||
| 51004_TS_DEWT_092015.nc | 05-Dec-2024 21:41 | 442957 | ||
| 51004_TS_DEWT_092016.nc | 05-Dec-2024 21:43 | 683751 | ||
| 51004_TS_DEWT_092017.nc | 05-Dec-2024 21:45 | 450572 | ||
| 51004_TS_DEWT_092018.nc | 05-Dec-2024 21:50 | 682333 | ||
| 51004_TS_DEWT_092019.nc | 05-Dec-2024 21:54 | 982936 | ||
| 51004_TS_DEWT_092020.nc | 05-Dec-2024 21:59 | 470169 | ||
| 51004_TS_DEWT_092021.nc | 05-Dec-2024 22:03 | 438046 | ||
| 51004_TS_DEWT_092022.nc | 05-Dec-2024 22:08 | 586921 | ||
| 51004_TS_DEWT_092023.nc | 05-Dec-2024 22:12 | 593686 | ||
| 51004_TS_DEWT_092025.nc | 01-Oct-2025 05:35 | 446300 | ||
| 51004_TS_DEWT_101985.nc | 05-Dec-2024 20:29 | 435115 | ||
| 51004_TS_DEWT_101986.nc | 05-Dec-2024 20:31 | 433861 | ||
| 51004_TS_DEWT_101987.nc | 05-Dec-2024 20:32 | 424502 | ||
| 51004_TS_DEWT_101988.nc | 05-Dec-2024 20:33 | 450230 | ||
| 51004_TS_DEWT_101989.nc | 05-Dec-2024 20:35 | 448182 | ||
| 51004_TS_DEWT_101990.nc | 05-Dec-2024 20:37 | 448780 | ||
| 51004_TS_DEWT_101991.nc | 05-Dec-2024 20:41 | 454067 | ||
| 51004_TS_DEWT_101992.nc | 05-Dec-2024 20:43 | 448906 | ||
| 51004_TS_DEWT_101993.nc | 05-Dec-2024 20:44 | 446519 | ||
| 51004_TS_DEWT_101994.nc | 05-Dec-2024 20:46 | 437894 | ||
| 51004_TS_DEWT_101995.nc | 05-Dec-2024 20:48 | 451888 | ||
| 51004_TS_DEWT_101996.nc | 05-Dec-2024 20:50 | 678307 | ||
| 51004_TS_DEWT_101997.nc | 05-Dec-2024 20:52 | 434666 | ||
| 51004_TS_DEWT_101998.nc | 05-Dec-2024 20:53 | 685669 | ||
| 51004_TS_DEWT_101999.nc | 05-Dec-2024 20:55 | 687366 | ||
| 51004_TS_DEWT_102000.nc | 05-Dec-2024 20:57 | 687813 | ||
| 51004_TS_DEWT_102001.nc | 05-Dec-2024 20:59 | 476175 | ||
| 51004_TS_DEWT_102002.nc | 05-Dec-2024 21:01 | 439906 | ||
| 51004_TS_DEWT_102003.nc | 05-Dec-2024 21:02 | 593653 | ||
| 51004_TS_DEWT_102004.nc | 05-Dec-2024 21:04 | 449590 | ||
| 51004_TS_DEWT_102005.nc | 05-Dec-2024 21:06 | 448085 | ||
| 51004_TS_DEWT_102006.nc | 05-Dec-2024 21:13 | 436100 | ||
| 51004_TS_DEWT_102007.nc | 05-Dec-2024 21:15 | 451860 | ||
| 51004_TS_DEWT_102008.nc | 05-Dec-2024 21:16 | 448784 | ||
| 51004_TS_DEWT_102009.nc | 05-Dec-2024 21:16 | 451044 | ||
| 51004_TS_DEWT_102011.nc | 05-Dec-2024 21:18 | 450908 | ||
| 51004_TS_DEWT_102012.nc | 05-Dec-2024 21:19 | 455462 | ||
| 51004_TS_DEWT_102013.nc | 05-Dec-2024 21:21 | 433785 | ||
| 51004_TS_DEWT_102014.nc | 05-Dec-2024 21:39 | 450514 | ||
| 51004_TS_DEWT_102015.nc | 05-Dec-2024 21:41 | 443566 | ||
| 51004_TS_DEWT_102016.nc | 05-Dec-2024 21:43 | 433488 | ||
| 51004_TS_DEWT_102017.nc | 05-Dec-2024 21:46 | 984121 | ||
| 51004_TS_DEWT_102018.nc | 05-Dec-2024 21:50 | 686224 | ||
| 51004_TS_DEWT_102019.nc | 05-Dec-2024 21:55 | 677644 | ||
| 51004_TS_DEWT_102020.nc | 05-Dec-2024 21:59 | 982778 | ||
| 51004_TS_DEWT_102021.nc | 05-Dec-2024 22:04 | 689819 | ||
| 51004_TS_DEWT_102022.nc | 05-Dec-2024 22:08 | 469014 | ||
| 51004_TS_DEWT_102023.nc | 05-Dec-2024 22:13 | 438844 | ||
| 51004_TS_DEWT_102025.nc | 01-Nov-2025 06:13 | 602610 | ||
| 51004_TS_DEWT_111984.nc | 05-Dec-2024 20:27 | 442611 | ||
| 51004_TS_DEWT_111985.nc | 05-Dec-2024 20:29 | 449447 | ||
| 51004_TS_DEWT_111987.nc | 05-Dec-2024 20:32 | 439126 | ||
| 51004_TS_DEWT_111988.nc | 05-Dec-2024 20:33 | 448778 | ||
| 51004_TS_DEWT_111989.nc | 05-Dec-2024 20:35 | 450666 | ||
| 51004_TS_DEWT_111990.nc | 05-Dec-2024 20:37 | 450833 | ||
| 51004_TS_DEWT_111991.nc | 05-Dec-2024 20:41 | 450893 | ||
| 51004_TS_DEWT_111992.nc | 05-Dec-2024 20:43 | 454159 | ||
| 51004_TS_DEWT_111993.nc | 05-Dec-2024 20:45 | 449033 | ||
| 51004_TS_DEWT_111994.nc | 05-Dec-2024 20:46 | 432454 | ||
| 51004_TS_DEWT_111995.nc | 05-Dec-2024 20:48 | 448352 | ||
| 51004_TS_DEWT_111996.nc | 05-Dec-2024 20:50 | 477016 | ||
| 51004_TS_DEWT_111997.nc | 05-Dec-2024 20:52 | 687807 | ||
| 51004_TS_DEWT_111998.nc | 05-Dec-2024 20:53 | 681970 | ||
| 51004_TS_DEWT_111999.nc | 05-Dec-2024 20:55 | 688400 | ||
| 51004_TS_DEWT_112000.nc | 05-Dec-2024 20:57 | 677264 | ||
| 51004_TS_DEWT_112001.nc | 05-Dec-2024 20:59 | 661417 | ||
| 51004_TS_DEWT_112002.nc | 05-Dec-2024 21:01 | 437931 | ||
| 51004_TS_DEWT_112003.nc | 05-Dec-2024 21:03 | 440059 | ||
| 51004_TS_DEWT_112004.nc | 05-Dec-2024 21:04 | 590187 | ||
| 51004_TS_DEWT_112005.nc | 05-Dec-2024 21:06 | 440115 | ||
| 51004_TS_DEWT_112006.nc | 05-Dec-2024 21:13 | 446938 | ||
| 51004_TS_DEWT_112007.nc | 05-Dec-2024 21:15 | 447467 | ||
| 51004_TS_DEWT_112008.nc | 05-Dec-2024 21:16 | 441929 | ||
| 51004_TS_DEWT_112011.nc | 05-Dec-2024 21:18 | 450849 | ||
| 51004_TS_DEWT_112012.nc | 05-Dec-2024 21:19 | 451127 | ||
| 51004_TS_DEWT_112013.nc | 05-Dec-2024 21:23 | 450094 | ||
| 51004_TS_DEWT_112014.nc | 05-Dec-2024 21:39 | 453076 | ||
| 51004_TS_DEWT_112015.nc | 05-Dec-2024 21:41 | 449399 | ||
| 51004_TS_DEWT_112016.nc | 05-Dec-2024 21:43 | 442402 | ||
| 51004_TS_DEWT_112017.nc | 05-Dec-2024 21:46 | 450978 | ||
| 51004_TS_DEWT_112018.nc | 05-Dec-2024 21:51 | 430466 | ||
| 51004_TS_DEWT_112019.nc | 05-Dec-2024 21:55 | 987024 | ||
| 51004_TS_DEWT_112020.nc | 05-Dec-2024 22:00 | 983313 | ||
| 51004_TS_DEWT_112021.nc | 05-Dec-2024 22:04 | 691869 | ||
| 51004_TS_DEWT_112022.nc | 05-Dec-2024 22:09 | 984724 | ||
| 51004_TS_DEWT_112023.nc | 05-Dec-2024 22:13 | 674285 | ||
| 51004_TS_DEWT_112024.nc | 17-Jan-2025 16:00 | 437372 | ||
| 51004_TS_DEWT_112025.nc | 01-Dec-2025 10:06 | 586988 | ||
| 51004_TS_DEWT_121984.nc | 05-Dec-2024 20:28 | 605402 | ||
| 51004_TS_DEWT_121985.nc | 05-Dec-2024 20:30 | 1829104 | ||
| 51004_TS_DEWT_121987.nc | 05-Dec-2024 20:32 | 1834039 | ||
| 51004_TS_DEWT_121988.nc | 05-Dec-2024 20:33 | 1830780 | ||
| 51004_TS_DEWT_121989.nc | 05-Dec-2024 20:35 | 1824387 | ||
| 51004_TS_DEWT_121990.nc | 05-Dec-2024 20:38 | 1824950 | ||
| 51004_TS_DEWT_121991.nc | 05-Dec-2024 20:41 | 1677695 | ||
| 51004_TS_DEWT_121992.nc | 05-Dec-2024 20:43 | 1660355 | ||
| 51004_TS_DEWT_121994.nc | 05-Dec-2024 20:46 | 1837841 | ||
| 51004_TS_DEWT_121995.nc | 05-Dec-2024 20:48 | 5154950 | ||
| 51004_TS_DEWT_121996.nc | 05-Dec-2024 20:50 | 3641309 | ||
| 51004_TS_DEWT_121997.nc | 05-Dec-2024 20:52 | 1642050 | ||
| 51004_TS_DEWT_121998.nc | 05-Dec-2024 20:53 | 1656878 | ||
| 51004_TS_DEWT_121999.nc | 05-Dec-2024 20:55 | 1324876 | ||
| 51004_TS_DEWT_122000.nc | 05-Dec-2024 20:57 | 1656029 | ||
| 51004_TS_DEWT_122001.nc | 05-Dec-2024 20:59 | 1654770 | ||
| 51004_TS_DEWT_122002.nc | 05-Dec-2024 21:01 | 1661931 | ||
| 51004_TS_DEWT_122003.nc | 05-Dec-2024 21:03 | 1638872 | ||
| 51004_TS_DEWT_122004.nc | 05-Dec-2024 21:05 | 1649006 | ||
| 51004_TS_DEWT_122005.nc | 05-Dec-2024 21:06 | 1657479 | ||
| 51004_TS_DEWT_122006.nc | 05-Dec-2024 21:13 | 3254852 | ||
| 51004_TS_DEWT_122007.nc | 05-Dec-2024 21:15 | 4851659 | ||
| 51004_TS_DEWT_122011.nc | 05-Dec-2024 21:18 | 1706501 | ||
| 51004_TS_DEWT_122012.nc | 05-Dec-2024 21:20 | 1676850 | ||
| 51004_TS_DEWT_122013.nc | 05-Dec-2024 21:25 | 1667780 | ||
| 51004_TS_DEWT_122014.nc | 05-Dec-2024 21:39 | 1311543 | ||
| 51004_TS_DEWT_122015.nc | 05-Dec-2024 21:41 | 1832085 | ||
| 51004_TS_DEWT_122016.nc | 05-Dec-2024 21:44 | 1680961 | ||
| 51004_TS_DEWT_122017.nc | 05-Dec-2024 21:46 | 1828071 | ||
| 51004_TS_DEWT_122018.nc | 05-Dec-2024 21:51 | 1296762 | ||
| 51004_TS_DEWT_122019.nc | 05-Dec-2024 21:55 | 1832488 | ||
| 51004_TS_DEWT_122020.nc | 05-Dec-2024 22:00 | 1832936 | ||
| 51004_TS_DEWT_122021.nc | 05-Dec-2024 22:04 | 4162320 | ||
| 51004_TS_DEWT_122022.nc | 05-Dec-2024 22:09 | 3979024 | ||
| 51004_TS_DEWT_122023.nc | 05-Dec-2024 22:14 | 1678535 | ||
| 51004_TS_DEWT_122024.nc | 22-Jan-2025 17:08 | 1648946 | ||
| 51004_TS_DEWT_122025.nc | 01-Jan-2026 04:14 | 1662819 | ||